Terminal Aerodrome Forecast
Issued by NWS Wilmington, NC

Home | Current Version | Previous Version | Text Only | Print | Product List | Glossary On
Versions: 1 2 3 4 5 6 7 8 9 10 11 12 13 14 15 16 17
000
FTUS42 KILM 192320
TAFFLO
TAF
KFLO 192320Z 2000/2024 VRB05KT P6SM BKN250
     FM200900 11004KT P6SM OVC050 PROB30 2009/2012 5SM -DZ OVC050
     FM201200 14003KT 2SM BR OVC015
     FM201500 20006KT 4SM BR OVC015=

USA.gov is the U.S. government's official web portal to all federal, state and local government web resources and services.